createdAt,value
2022-10-08T00:01:40.360Z,84.52
2022-10-08T00:04:12.236Z,83.88
2022-10-08T00:06:40.264Z,84.21
2022-10-08T00:09:08.848Z,84.20
2022-10-08T00:11:41.444Z,84.03
2022-10-08T00:14:09.962Z,84.87
2022-10-08T00:16:40.103Z,84.02
2022-10-08T00:19:12.673Z,84.84
2022-10-08T00:21:43.064Z,83.74
2022-10-08T00:24:14.824Z,84.46
2022-10-08T00:26:44.358Z,84.23
2022-10-08T00:29:14.735Z,83.94
2022-10-08T00:31:45.609Z,84.56
2022-10-08T00:34:17.296Z,85.13
2022-10-08T00:36:45.591Z,85.21
2022-10-08T00:39:15.270Z,85.35
2022-10-08T00:41:44.896Z,85.63
2022-10-08T00:44:53.608Z,85.99
2022-10-08T00:47:37.812Z,85.96
2022-10-08T00:50:13.174Z,85.61
2022-10-08T00:52:44.876Z,84.97
2022-10-08T00:55:15.536Z,85.09
2022-10-08T00:57:44.831Z,84.64
2022-10-08T01:00:16.589Z,84.48
2022-10-08T01:02:44.871Z,84.61
2022-10-08T01:05:17.637Z,84.41
2022-10-08T01:07:52.709Z,83.90
2022-10-08T01:10:33.384Z,83.34
2022-10-08T01:13:18.313Z,83.01
2022-10-08T01:15:54.399Z,82.28
2022-10-08T01:18:32.819Z,82.84
2022-10-08T01:21:10.100Z,82.84
2022-10-08T01:24:11.367Z,82.98
2022-10-08T01:26:54.054Z,82.68
2022-10-08T01:29:29.476Z,82.79
2022-10-08T01:32:04.159Z,83.63
2022-10-08T01:34:37.747Z,82.26
2022-10-08T01:37:11.135Z,81.79
2022-10-08T01:39:42.213Z,82.03
2022-10-08T01:42:12.331Z,81.57
2022-10-08T01:44:46.415Z,82.46
2022-10-08T01:47:21.262Z,82.13
2022-10-08T01:49:53.625Z,82.12
2022-10-08T01:52:25.676Z,81.49
2022-10-08T01:54:59.927Z,82.18
2022-10-08T01:57:31.524Z,82.75
2022-10-08T02:00:06.351Z,82.46
2022-10-08T02:02:40.915Z,83.02
2022-10-08T02:05:09.398Z,83.05
2022-10-08T02:07:39.284Z,83.29
2022-10-08T02:10:10.128Z,83.59
2022-10-08T02:12:40.176Z,84.66
2022-10-08T02:15:16.033Z,84.34
2022-10-08T02:17:56.268Z,84.72
2022-10-08T02:20:31.303Z,84.75
2022-10-08T02:23:05.384Z,84.23
2022-10-08T02:25:38.511Z,84.92
2022-10-08T02:28:12.969Z,85.16
2022-10-08T02:30:49.816Z,84.92
2022-10-08T02:33:25.845Z,85.62
2022-10-08T02:35:58.116Z,85.82
2022-10-08T02:38:33.092Z,86.40
2022-10-08T02:41:04.711Z,86.10
2022-10-08T02:43:36.714Z,85.99
2022-10-08T02:46:11.460Z,85.31
2022-10-08T02:48:42.502Z,86.63
2022-10-08T02:51:15.660Z,86.15
2022-10-08T02:53:45.906Z,85.61
2022-10-08T02:56:19.955Z,85.77
2022-10-08T02:58:48.884Z,86.12
2022-10-08T03:01:26.545Z,85.66
2022-10-08T03:04:00.044Z,85.08
2022-10-08T03:06:29.975Z,86.41
2022-10-08T03:09:00.702Z,85.74
2022-10-08T03:11:30.534Z,86.19
2022-10-08T03:14:01.042Z,86.24
2022-10-08T03:16:38.218Z,86.77
2022-10-08T03:19:08.481Z,86.49
2022-10-08T03:21:39.423Z,87.10
2022-10-08T03:24:07.803Z,87.29
2022-10-08T03:26:35.792Z,87.41
2022-10-08T03:29:04.539Z,88.00
2022-10-08T03:31:33.993Z,88.28
2022-10-08T03:34:01.973Z,87.92
2022-10-08T03:36:30.296Z,88.18
2022-10-08T03:38:58.700Z,87.58
2022-10-08T03:41:26.718Z,87.21
2022-10-08T03:43:54.654Z,86.59
2022-10-08T03:46:22.633Z,85.63
2022-10-08T03:48:52.057Z,85.77
2022-10-08T03:51:21.066Z,85.13
2022-10-08T03:53:49.248Z,85.59
2022-10-08T03:56:19.295Z,85.25
2022-10-08T03:58:47.884Z,85.03
2022-10-08T04:01:17.849Z,85.37
2022-10-08T04:03:46.670Z,85.36
2022-10-08T04:06:16.447Z,85.62
2022-10-08T04:08:44.549Z,85.60
2022-10-08T04:11:14.795Z,85.20
2022-10-08T04:13:43.761Z,84.71
2022-10-08T04:16:13.546Z,84.31
2022-10-08T04:18:41.927Z,84.15
2022-10-08T04:21:12.252Z,84.14
2022-10-08T04:23:42.704Z,84.01
2022-10-08T04:26:13.301Z,83.83
2022-10-08T04:28:44.265Z,83.78
2022-10-08T04:31:14.321Z,83.65
2022-10-08T04:33:42.331Z,82.94
2022-10-08T04:36:11.945Z,83.63
2022-10-08T04:38:42.776Z,85.24
2022-10-08T04:41:13.410Z,85.86
2022-10-08T04:43:42.934Z,85.43
2022-10-08T04:46:13.213Z,85.20
2022-10-08T04:48:41.658Z,86.00
2022-10-08T04:51:10.923Z,87.11
2022-10-08T04:53:39.906Z,86.43
2022-10-08T04:56:14.614Z,87.77
2022-10-08T04:58:42.898Z,88.06
2022-10-08T05:01:13.358Z,87.90
2022-10-08T05:03:43.929Z,89.75
2022-10-08T05:06:12.666Z,90.72
2022-10-08T05:08:40.636Z,89.58
2022-10-08T05:11:08.988Z,88.86
2022-10-08T05:13:38.926Z,88.87
2022-10-08T05:16:08.392Z,88.80
2022-10-08T05:18:37.508Z,88.35
2022-10-08T05:21:06.804Z,89.17
2022-10-08T05:23:35.662Z,90.43
2022-10-08T05:26:11.604Z,90.37
2022-10-08T05:28:41.012Z,90.41
2022-10-08T05:31:09.152Z,90.37
2022-10-08T05:33:43.768Z,90.10
2022-10-08T05:36:17.217Z,90.19
2022-10-08T05:38:45.257Z,89.99
2022-10-08T05:41:15.394Z,89.79
2022-10-08T05:43:45.701Z,89.71
2022-10-08T05:46:13.996Z,89.16
2022-10-08T05:48:42.852Z,89.37
2022-10-08T05:51:13.271Z,89.27
2022-10-08T05:53:42.838Z,88.46
2022-10-08T05:56:13.534Z,88.53
2022-10-08T05:58:42.667Z,88.43
2022-10-08T06:01:15.550Z,89.24
2022-10-08T06:03:44.368Z,90.97
2022-10-08T06:06:13.170Z,92.28
2022-10-08T06:08:43.981Z,93.19
2022-10-08T06:11:12.038Z,94.46
2022-10-08T06:13:40.020Z,94.66
2022-10-08T06:16:09.835Z,95.48
2022-10-08T06:18:41.206Z,96.76
2022-10-08T06:21:11.822Z,96.21
2022-10-08T06:23:40.802Z,95.62
2022-10-08T06:26:10.830Z,96.30
2022-10-08T06:28:40.297Z,95.62
2022-10-08T06:31:09.516Z,94.74
2022-10-08T06:33:39.059Z,94.40
2022-10-08T06:36:09.049Z,94.31
2022-10-08T06:38:36.917Z,94.27
2022-10-08T06:41:04.950Z,93.40
2022-10-08T06:43:33.071Z,93.26
2022-10-08T06:46:05.440Z,92.90
2022-10-08T06:48:33.619Z,92.00
2022-10-08T06:51:06.132Z,91.88
2022-10-08T06:53:36.063Z,91.58
2022-10-08T06:56:06.383Z,92.41
2022-10-08T06:58:36.551Z,92.00
2022-10-08T07:01:06.812Z,92.24
2022-10-08T07:03:36.023Z,91.76
2022-10-08T07:06:07.250Z,91.94
2022-10-08T07:08:36.076Z,90.17
2022-10-08T07:11:05.989Z,90.00
2022-10-08T07:13:34.109Z,90.65
2022-10-08T07:16:03.654Z,89.82
2022-10-08T07:18:32.555Z,89.60
2022-10-08T07:21:00.980Z,88.77
2022-10-08T07:23:30.438Z,87.53
2022-10-08T07:26:00.333Z,87.86
2022-10-08T07:28:30.762Z,87.43
2022-10-08T07:30:58.771Z,87.75
2022-10-08T07:33:26.692Z,88.00
2022-10-08T07:35:54.975Z,87.95
2022-10-08T07:38:23.061Z,87.67
2022-10-08T07:40:54.961Z,88.42
2022-10-08T07:43:24.248Z,88.34
2022-10-08T07:45:52.294Z,88.32
2022-10-08T07:48:20.755Z,85.22
2022-10-08T07:50:48.701Z,85.90
2022-10-08T07:53:17.135Z,85.31
2022-10-08T07:55:48.225Z,85.64
2022-10-08T07:58:17.551Z,85.36
2022-10-08T08:00:45.538Z,85.13
2022-10-08T08:03:15.518Z,85.95
2022-10-08T08:05:43.647Z,85.33
2022-10-08T08:08:12.373Z,84.42
2022-10-08T08:10:40.392Z,84.25
2022-10-08T08:13:08.366Z,85.59
2022-10-08T08:15:37.753Z,85.29
2022-10-08T08:18:06.072Z,85.65
2022-10-08T08:20:34.006Z,86.26
2022-10-08T08:23:02.455Z,86.47
2022-10-08T08:25:32.179Z,86.03
2022-10-08T08:28:00.204Z,85.62
2022-10-08T08:30:28.274Z,85.15
2022-10-08T08:33:00.821Z,83.17
2022-10-08T08:35:28.954Z,81.98
2022-10-08T08:37:56.927Z,82.43
2022-10-08T08:40:24.932Z,80.64
2022-10-08T08:42:56.452Z,80.54
2022-10-08T08:45:45.757Z,80.78
2022-10-08T08:48:20.457Z,81.20
2022-10-08T08:50:51.088Z,80.27
2022-10-08T08:53:19.979Z,80.91
2022-10-08T08:55:50.311Z,80.07
2022-10-08T08:58:28.431Z,79.79
2022-10-08T09:01:01.601Z,79.79
2022-10-08T09:03:35.941Z,80.08
2022-10-08T09:06:09.862Z,79.65
2022-10-08T09:08:43.431Z,78.90
2022-10-08T09:11:14.706Z,77.64
2022-10-08T09:13:48.868Z,77.39
2022-10-08T09:16:17.854Z,77.32
2022-10-08T09:18:55.508Z,78.22
2022-10-08T09:21:26.407Z,78.16
2022-10-08T09:23:54.434Z,78.44
2022-10-08T09:26:24.304Z,77.26
2022-10-08T09:28:54.746Z,77.57
2022-10-08T09:31:27.076Z,74.57
2022-10-08T09:34:05.326Z,74.63
2022-10-08T09:36:39.053Z,72.17
2022-10-08T09:39:16.559Z,71.58
2022-10-08T09:41:45.792Z,70.55
2022-10-08T09:44:21.675Z,69.23
2022-10-08T09:47:04.854Z,69.94
2022-10-08T09:49:35.776Z,69.95
2022-10-08T09:52:16.890Z,68.76
2022-10-08T09:54:49.220Z,69.20
2022-10-08T09:57:19.467Z,71.66
2022-10-08T09:59:54.388Z,71.09
2022-10-08T10:02:32.064Z,70.81
2022-10-08T10:05:03.830Z,70.78
2022-10-08T10:07:40.593Z,70.99
2022-10-08T10:10:19.190Z,69.68
2022-10-08T10:12:52.263Z,68.77
2022-10-08T10:15:23.766Z,68.27
2022-10-08T10:17:56.567Z,67.93
2022-10-08T10:20:38.756Z,68.59
2022-10-08T10:23:14.664Z,69.52
2022-10-08T10:25:47.660Z,69.73
2022-10-08T10:28:21.272Z,68.85
2022-10-08T10:30:54.008Z,66.41
2022-10-08T10:33:26.723Z,65.31
2022-10-08T10:36:00.539Z,64.72
2022-10-08T10:38:31.172Z,64.83
2022-10-08T10:41:10.953Z,64.01
2022-10-08T10:43:46.984Z,63.40
2022-10-08T10:46:23.642Z,62.96
2022-10-08T10:48:52.045Z,61.91
2022-10-08T10:51:39.586Z,61.99
2022-10-08T10:54:20.726Z,62.01
2022-10-08T10:56:55.021Z,61.13
2022-10-08T10:59:37.754Z,60.43
2022-10-08T11:02:16.232Z,60.55
2022-10-08T11:04:52.980Z,60.38
2022-10-08T11:07:45.880Z,61.79
2022-10-08T11:10:26.195Z,61.47
2022-10-08T11:13:00.878Z,62.26
2022-10-08T11:15:37.453Z,63.52
2022-10-08T11:18:18.962Z,64.92
2022-10-08T11:21:04.091Z,64.49
2022-10-08T11:23:54.603Z,63.89
2022-10-08T11:26:31.861Z,63.55
2022-10-08T11:29:09.806Z,62.12
2022-10-08T11:31:42.689Z,62.17
2022-10-08T11:34:25.708Z,62.33
2022-10-08T11:37:04.805Z,62.38
2022-10-08T11:39:43.097Z,66.39
2022-10-08T11:42:18.397Z,74.27
2022-10-08T11:44:46.638Z,78.26
2022-10-08T11:47:52.045Z,79.63
2022-10-08T11:50:30.951Z,80.11
2022-10-08T11:53:18.445Z,76.45
2022-10-08T11:55:55.048Z,74.32
2022-10-08T11:58:28.134Z,74.92
2022-10-08T12:01:03.570Z,74.06
2022-10-08T12:03:34.739Z,73.92
2022-10-08T12:06:17.024Z,75.06
2022-10-08T12:08:58.307Z,75.39
2022-10-08T12:11:51.072Z,75.56
2022-10-08T12:14:42.481Z,76.22
2022-10-08T12:17:12.962Z,74.74
2022-10-08T12:20:03.138Z,73.18
2022-10-08T12:23:00.250Z,73.28
2022-10-08T12:25:40.265Z,73.40
2022-10-08T12:28:46.753Z,73.27
2022-10-08T12:31:24.146Z,74.85
2022-10-08T12:34:01.006Z,74.92
2022-10-08T12:36:49.546Z,74.97
2022-10-08T12:39:27.909Z,75.29
2022-10-08T12:42:05.138Z,75.73
2022-10-08T12:44:45.154Z,76.01
2022-10-08T12:47:26.608Z,75.39
2022-10-08T12:49:59.674Z,75.72
2022-10-08T12:52:28.187Z,75.57
2022-10-08T12:54:58.607Z,75.25
2022-10-08T12:57:30.489Z,73.79
2022-10-08T13:00:01.848Z,72.60
2022-10-08T13:02:37.829Z,72.34
2022-10-08T13:05:07.106Z,72.76
2022-10-08T13:07:36.444Z,72.66
2022-10-08T13:10:19.118Z,72.33
2022-10-08T13:13:00.199Z,71.99
2022-10-08T13:15:31.360Z,70.99
2022-10-08T13:17:59.345Z,72.03
2022-10-08T13:20:27.688Z,71.07
2022-10-08T13:22:55.812Z,71.47
2022-10-08T13:25:35.480Z,71.46
2022-10-08T13:28:15.576Z,70.65
2022-10-08T13:30:46.933Z,68.47
2022-10-08T13:33:20.105Z,67.54
2022-10-08T13:35:53.862Z,65.48
2022-10-08T13:38:26.116Z,63.01
2022-10-08T13:40:58.669Z,62.69
2022-10-08T13:43:27.383Z,64.35
2022-10-08T13:45:57.029Z,65.50
2022-10-08T13:48:25.033Z,67.28
2022-10-08T13:50:53.618Z,68.48
2022-10-08T13:53:26.271Z,70.22
2022-10-08T13:55:54.403Z,71.14
2022-10-08T13:58:22.582Z,71.36
2022-10-08T14:00:50.978Z,68.83
2022-10-08T14:03:20.566Z,70.02
2022-10-08T14:05:49.457Z,70.00
2022-10-08T14:08:20.808Z,66.85
2022-10-08T14:10:49.466Z,65.30
2022-10-08T14:13:17.722Z,64.79
2022-10-08T14:15:47.404Z,64.64
2022-10-08T14:18:15.478Z,62.37
2022-10-08T14:20:45.002Z,62.65
2022-10-08T14:23:14.268Z,62.85
2022-10-08T14:25:42.302Z,62.91
2022-10-08T14:28:10.328Z,63.38
2022-10-08T14:30:38.573Z,63.10
2022-10-08T14:33:11.033Z,63.28
2022-10-08T14:35:40.035Z,63.79
2022-10-08T14:38:09.781Z,63.29
2022-10-08T14:40:39.022Z,62.53
2022-10-08T14:43:07.127Z,61.73
2022-10-08T14:45:35.125Z,61.51
2022-10-08T14:48:03.453Z,61.52
2022-10-08T14:50:31.837Z,60.47
2022-10-08T14:52:59.822Z,61.27
2022-10-08T14:55:29.314Z,60.79
2022-10-08T14:57:57.435Z,60.86
2022-10-08T15:00:25.427Z,60.73
2022-10-08T15:02:53.727Z,60.76
2022-10-08T15:05:21.824Z,60.86
2022-10-08T15:07:50.403Z,60.39
2022-10-08T15:10:18.867Z,60.18
2022-10-08T15:12:48.393Z,60.73
2022-10-08T15:15:18.628Z,60.07
2022-10-08T15:17:48.511Z,60.07
2022-10-08T15:20:17.092Z,59.78
2022-10-08T15:22:45.201Z,59.08
2022-10-08T15:25:13.473Z,59.99
2022-10-08T15:27:41.525Z,59.59
2022-10-08T15:30:12.872Z,59.08
2022-10-08T15:32:40.893Z,59.01
2022-10-08T15:35:11.261Z,58.79
2022-10-08T15:37:39.251Z,58.95
2022-10-08T15:40:08.189Z,59.40
2022-10-08T15:42:36.336Z,59.27
2022-10-08T15:45:04.431Z,59.25
2022-10-08T15:47:33.802Z,59.45
2022-10-08T15:50:01.962Z,59.90
2022-10-08T15:52:30.025Z,59.85
2022-10-08T15:54:57.989Z,60.40
2022-10-08T15:57:25.915Z,60.03
2022-10-08T15:59:55.657Z,60.71
2022-10-08T16:02:23.725Z,61.35
2022-10-08T16:04:53.894Z,60.97
2022-10-08T16:07:21.950Z,61.03
2022-10-08T16:09:50.510Z,61.90
2022-10-08T16:12:18.515Z,62.21
2022-10-08T16:14:47.242Z,62.31
2022-10-08T16:17:15.679Z,62.92
2022-10-08T16:19:43.719Z,62.16
2022-10-08T16:22:13.803Z,63.54
2022-10-08T16:24:41.778Z,62.89
2022-10-08T16:27:10.057Z,62.98
2022-10-08T16:29:38.045Z,63.87
2022-10-08T16:32:06.093Z,62.70
2022-10-08T16:34:34.407Z,62.29
2022-10-08T16:37:02.449Z,61.63
2022-10-08T16:39:31.947Z,61.81
2022-10-08T16:41:59.838Z,62.37
2022-10-08T16:44:27.867Z,62.10
2022-10-08T16:46:55.906Z,62.87
2022-10-08T16:49:26.709Z,63.03
2022-10-08T16:51:57.586Z,63.95
2022-10-08T16:54:25.720Z,64.81
2022-10-08T16:56:56.709Z,65.37
2022-10-08T16:59:27.280Z,66.55
2022-10-08T17:01:57.658Z,66.86
2022-10-08T17:04:28.033Z,67.22
2022-10-08T17:06:56.510Z,68.44
2022-10-08T17:09:24.581Z,69.32
2022-10-08T17:11:53.052Z,69.60
2022-10-08T17:14:22.672Z,70.43
2022-10-08T17:16:52.312Z,70.91
2022-10-08T17:19:20.827Z,71.43
2022-10-08T17:21:49.046Z,71.49
2022-10-08T17:24:17.555Z,72.28
2022-10-08T17:26:45.577Z,72.08
2022-10-08T17:29:14.077Z,73.10
2022-10-08T17:31:43.843Z,72.90
2022-10-08T17:34:12.647Z,72.84
2022-10-08T17:36:44.145Z,73.15
2022-10-08T17:39:14.263Z,72.83
2022-10-08T17:41:43.953Z,73.21
2022-10-08T17:44:12.349Z,73.01
2022-10-08T17:46:42.779Z,73.44
2022-10-08T17:49:12.706Z,73.74
2022-10-08T17:51:40.846Z,73.76
2022-10-08T17:54:13.112Z,74.10
2022-10-08T17:56:41.107Z,73.43
2022-10-08T17:59:09.258Z,73.78
2022-10-08T18:01:41.466Z,74.59
2022-10-08T18:04:16.694Z,74.58
2022-10-08T18:06:46.706Z,74.60
2022-10-08T18:09:18.861Z,74.82
2022-10-08T18:11:48.884Z,75.03
2022-10-08T18:14:17.545Z,74.74
2022-10-08T18:16:48.481Z,74.66
2022-10-08T18:19:19.250Z,74.41
2022-10-08T18:21:47.676Z,74.29
2022-10-08T18:24:16.564Z,74.77
2022-10-08T18:26:44.815Z,75.21
2022-10-08T18:29:14.746Z,75.11
2022-10-08T18:31:44.646Z,75.19
2022-10-08T18:34:15.575Z,75.30
2022-10-08T18:36:45.060Z,75.10
2022-10-08T18:39:14.520Z,75.35
2022-10-08T18:41:44.322Z,75.35
2022-10-08T18:44:16.096Z,75.67
2022-10-08T18:46:46.824Z,76.76
2022-10-08T18:49:16.686Z,76.82
2022-10-08T18:51:46.546Z,77.24
2022-10-08T18:54:14.585Z,77.57
2022-10-08T18:56:43.992Z,77.89
2022-10-08T18:59:14.803Z,78.10
2022-10-08T19:01:45.202Z,77.92
2022-10-08T19:04:15.404Z,78.03
2022-10-08T19:06:48.829Z,78.32
2022-10-08T19:09:17.142Z,78.67
2022-10-08T19:11:47.189Z,79.00
2022-10-08T19:14:17.610Z,78.64
2022-10-08T19:16:46.428Z,78.54
2022-10-08T19:19:16.705Z,77.39
2022-10-08T19:21:46.813Z,78.31
2022-10-08T19:24:17.149Z,77.92
2022-10-08T19:26:46.132Z,77.80
2022-10-08T19:29:16.560Z,77.74
2022-10-08T19:31:47.613Z,77.91
2022-10-08T19:34:17.350Z,78.40
2022-10-08T19:36:46.779Z,78.94
2022-10-08T19:39:17.352Z,79.06
2022-10-08T19:41:45.340Z,80.15
2022-10-08T19:44:13.406Z,80.06
2022-10-08T19:46:41.444Z,80.01
2022-10-08T19:49:09.985Z,79.96
2022-10-08T19:51:38.511Z,79.92
2022-10-08T19:54:08.170Z,80.10
2022-10-08T19:56:36.536Z,79.96
2022-10-08T19:59:04.978Z,80.18
2022-10-08T20:01:35.591Z,80.42
2022-10-08T20:04:05.693Z,80.12
2022-10-08T20:06:35.698Z,79.98
2022-10-08T20:09:06.077Z,80.68
2022-10-08T20:11:35.809Z,80.62
2022-10-08T20:14:03.741Z,80.06
2022-10-08T20:16:34.630Z,80.04
2022-10-08T20:19:05.358Z,79.97
2022-10-08T20:21:35.464Z,80.31
2022-10-08T20:24:04.053Z,80.50
2022-10-08T20:26:33.062Z,80.33
2022-10-08T20:29:04.987Z,80.73
2022-10-08T20:31:35.144Z,80.56
2022-10-08T20:34:04.777Z,80.72
2022-10-08T20:36:33.866Z,80.54
2022-10-08T20:39:01.989Z,80.89
2022-10-08T20:41:31.269Z,80.58
2022-10-08T20:44:03.094Z,80.82
2022-10-08T20:46:32.123Z,80.39
2022-10-08T20:49:00.452Z,81.37
2022-10-08T20:51:29.609Z,80.70
2022-10-08T20:53:59.431Z,80.82
2022-10-08T20:56:28.867Z,80.91
2022-10-08T20:58:57.494Z,80.99
2022-10-08T21:01:28.386Z,80.76
2022-10-08T21:03:56.750Z,80.40
2022-10-08T21:06:26.866Z,80.33
2022-10-08T21:08:56.836Z,80.78
2022-10-08T21:11:27.270Z,80.39
2022-10-08T21:13:55.553Z,80.35
2022-10-08T21:16:26.914Z,80.87
2022-10-08T21:18:57.281Z,81.31
2022-10-08T21:21:26.237Z,81.17
2022-10-08T21:23:54.342Z,80.69
2022-10-08T21:26:23.999Z,81.12
2022-10-08T21:28:54.053Z,81.33
2022-10-08T21:31:23.113Z,81.70
2022-10-08T21:33:53.969Z,82.32
2022-10-08T21:36:23.993Z,81.49
2022-10-08T21:38:52.422Z,82.51
2022-10-08T21:41:22.982Z,82.59
2022-10-08T21:43:52.399Z,82.36
2022-10-08T21:46:22.109Z,83.30
2022-10-08T21:48:56.382Z,83.45
2022-10-08T21:51:25.046Z,83.23
2022-10-08T21:53:56.473Z,82.39
2022-10-08T21:56:27.124Z,82.82
2022-10-08T21:58:56.861Z,83.29
2022-10-08T22:01:27.651Z,83.33
2022-10-08T22:03:58.717Z,83.16
2022-10-08T22:06:27.262Z,83.48
2022-10-08T22:08:55.284Z,83.67
2022-10-08T22:11:24.372Z,83.96
2022-10-08T22:13:53.231Z,84.11
2022-10-08T22:16:23.001Z,83.84
2022-10-08T22:18:51.150Z,83.87
2022-10-08T22:21:22.926Z,84.08
2022-10-08T22:23:52.248Z,83.93
2022-10-08T22:26:23.772Z,84.96
2022-10-08T22:28:52.324Z,84.98
2022-10-08T22:31:21.071Z,84.60
2022-10-08T22:33:49.985Z,84.31
2022-10-08T22:36:21.632Z,83.72
2022-10-08T22:38:50.074Z,84.30
2022-10-08T22:41:21.329Z,84.14
2022-10-08T22:43:49.744Z,84.37
2022-10-08T22:46:21.109Z,84.11
2022-10-08T22:48:49.171Z,83.74
2022-10-08T22:51:18.979Z,84.20
2022-10-08T22:53:49.435Z,83.86
2022-10-08T22:56:20.118Z,84.18
2022-10-08T22:58:49.157Z,82.71
2022-10-08T23:01:18.814Z,82.88
2022-10-08T23:03:47.099Z,82.27
2022-10-08T23:06:17.590Z,83.88
2022-10-08T23:08:47.799Z,83.79
2022-10-08T23:11:17.923Z,84.00
2022-10-08T23:13:46.548Z,84.55
2022-10-08T23:16:16.410Z,84.52
2022-10-08T23:18:46.607Z,84.45
2022-10-08T23:21:16.663Z,83.84
2022-10-08T23:23:45.932Z,84.87
2022-10-08T23:26:15.151Z,84.62
2022-10-08T23:28:45.670Z,84.69
2022-10-08T23:31:16.659Z,84.26
2022-10-08T23:33:46.311Z,85.00
2022-10-08T23:36:17.049Z,85.47
2022-10-08T23:38:45.194Z,85.03
2022-10-08T23:41:14.100Z,85.02
2022-10-08T23:43:46.082Z,85.56
2022-10-08T23:46:16.071Z,85.33
2022-10-08T23:48:44.609Z,85.68
2022-10-08T23:51:14.346Z,85.58
2022-10-08T23:53:42.632Z,86.22
2022-10-08T23:56:13.907Z,84.97
2022-10-08T23:58:42.497Z,85.17
